Terminal Aerodrome Forecast
Issued by NWS

Home | Current Version | Previous Version | Text Only | Print | Product List | Glossary On
Versions: 1 2 3 4 5 6 7 8 9 10 11 12 13 14 15 16 17 18 19 20 21
000
FTUS43 KDLH 070500
TAFHYR
TAF
KHYR 070520Z 0706/0806 15009KT P6SM VCSH BKN080 OVC100
      WS015/18040KT
     FM071100 16011KT 5SM -SHRA BR BKN025 OVC060 WS015/18040KT
     FM071500 18012KT P6SM VCSH SCT035 BKN080
     FM071800 19012KT 5SM -SHRA BR OVC012 PROB30 0718/0722 2SM -TSRA
      BR BKN008CB
     FM080200 19011KT 5SM -SHRA OVC008=

USA.gov is the U.S. government's official web portal to all federal, state and local government web resources and services.